VEAT METAR and TAF | Updated Today

VEAT METAR

Agartala Airport

Observation time: 31 min. ago

VEAT 080600Z 00000KT 2500 BR SCT018 BKN100 23/22 Q1017 NOSIG

Need help? Read our tutorial on how to read METARs or read the parsed version below.

Agartala Airport (VEAT) METAR

  • Weather conditions on Wed, 08 Dec 2021 06:00:00 +0000 (31 min. ago):
  • Present conditions: Mist
  • Clouds: Scattered at 549 meters; broken sky at 3048 meters
  • Visibility: 2500 meters
  • Wind: Calm
  • Temperature: 23 celsius
  • Dew point: 22 celsius
  • Pressure: 1017 millibars
  • Remarks: None


Useful to know...

VEAT TAF

Agartala Airport

TAF VEAT 080500Z 0806/0815 00000KT 2000 BR SCT018 BKN100 BECMG 0808/0811 3000 BR FEW018 SCT100
Observation time: 1:31 hr. ago
Need help? Read our tutorial on how to read TAFs or read the parsed version below.

Parsed version of TAF for Agartala Airport (VEAT)

  • From 08 December at 06:00 UTC, to day 08 of the month at 15:00 UTC
  • Clouds: Scattered at 549 meters; broken sky at 3048 meters
  • Visibility: 2000 meters
  • Other: Mist
  • Expected to arise soon, from 08 December at 08:00 UTC, to day 08 of the month at 11:00 UTC
  • Clouds: A few at 549 meters; scattered at 3048 meters
  • Visibility: 3000 meters
  • Other: Mist

Airports near VEAT

VGCM Weather
Region: Comilla

Comilla Airport

Not found in our database